Time;durP1;ratioP1;P1;durP2;ratioP2;P2;SDS_P1;SDS_P2;PMS_P1;PMS_P2;Temp;Humidity;BMP_temperature;BMP_pressure;BME280_temperature;BME280_humidity;BME280_pressure;Samples;Min_cycle;Max_cycle;Signal;HPM_P1;HPM_P2
2023/04/10 00:00:04;;;;;;;18.43;10.47;;;8.70;53.90;;;11.71;38.69;98195.25;5064838;28;20044;-47
2023/04/10 00:02:32;;;;;;;17.70;10.23;;;8.70;54.10;;;11.71;38.62;98186.38;5064963;28;20421;-46
2023/04/10 00:05:00;;;;;;;14.80;8.93;;;8.70;54.10;;;11.70;38.73;98190.06;5064685;28;20417;-46
2023/04/10 00:07:28;;;;;;;14.27;10.37;;;8.70;54.20;;;11.69;38.45;98188.38;5064548;28;20039;-47
2023/04/10 00:09:55;;;;;;;42.07;22.30;;;8.70;54.20;;;11.69;38.46;98185.72;5061706;28;20049;-44
2023/04/10 00:12:24;;;;;;;30.00;16.57;;;8.70;54.30;;;11.67;39.11;98185.03;5061445;28;20044;-45
2023/04/10 00:14:51;;;;;;;101.37;46.10;;;8.60;54.20;;;11.68;38.62;98187.53;5062997;28;20498;-45
2023/04/10 00:17:19;;;;;;;27.93;15.30;;;8.70;54.20;;;11.67;38.54;98185.03;5064658;28;20048;-47
2023/04/10 00:19:46;;;;;;;24.40;13.43;;;8.60;54.20;;;11.64;38.65;98175.50;5063097;28;20040;-45
2023/04/10 00:22:14;;;;;;;31.43;15.20;;;8.60;54.20;;;11.61;38.75;98182.00;5060867;28;20041;-45
2023/04/10 00:24:41;;;;;;;12.77;9.80;;;8.60;54.50;;;11.62;38.76;98183.66;5061309;28;20041;-46
2023/04/10 00:27:09;;;;;;;13.30;7.60;;;8.50;54.70;;;11.59;38.89;98180.47;5062384;28;20041;-49
2023/04/10 00:29:37;;;;;;;12.83;8.57;;;8.50;54.50;;;11.57;39.19;98177.13;5062223;28;20525;-47
2023/04/10 00:32:04;;;;;;;11.23;7.67;;;8.50;54.80;;;11.55;38.71;98174.59;5059071;28;20045;-46
2023/04/10 00:34:32;;;;;;;12.87;8.77;;;8.50;54.90;;;11.54;39.25;98172.94;5060969;28;20064;-47
2023/04/10 00:37:00;;;;;;;12.00;8.43;;;8.50;55.00;;;11.50;39.13;98166.25;5063926;28;20067;-46
2023/04/10 00:39:27;;;;;;;11.10;7.63;;;8.50;54.80;;;11.50;39.31;98162.75;5062690;28;20054;-48
2023/04/10 00:41:56;;;;;;;11.60;8.43;;;8.40;54.90;;;11.48;38.78;98162.06;5059987;28;20067;-46
2023/04/10 00:44:24;;;;;;;11.23;8.70;;;8.40;54.90;;;11.47;39.04;98158.53;5060373;28;20425;-46
2023/04/10 00:46:51;;;;;;;11.73;8.27;;;8.40;54.90;;;11.47;39.04;98163.03;5062185;28;20048;-45
2023/04/10 00:49:20;;;;;;;11.93;8.83;;;8.40;54.80;;;11.47;38.94;98161.22;5053116;28;20048;-49
2023/04/10 00:51:48;;;;;;;10.93;7.93;;;8.40;54.80;;;11.47;39.39;98160.38;5060553;28;20294;-48
2023/04/10 00:54:16;;;;;;;11.57;7.50;;;8.40;54.90;;;11.45;39.26;98157.84;5060104;28;20505;-47
2023/04/10 00:56:45;;;;;;;12.90;7.93;;;8.40;55.10;;;11.42;39.33;98160.84;5059333;28;20045;-47
2023/04/10 00:59:13;;;;;;;12.33;8.07;;;8.30;55.20;;;11.38;38.87;98154.13;5063015;28;20047;-48
2023/04/10 01:01:42;;;;;;;11.87;8.50;;;8.40;55.00;;;11.34;39.50;98158.09;5044795;28;20064;-49
2023/04/10 01:04:10;;;;;;;12.67;8.50;;;8.40;55.20;;;11.32;39.17;98160.06;5059889;28;20513;-45
2023/04/10 01:07:03;;;;;;;10.63;7.87;;;8.30;55.10;;;11.29;39.42;98165.72;5058740;28;20045;-49
2023/04/10 01:09:59;;;;;;;10.07;7.13;;;8.30;56.10;;;11.27;39.07;98167.72;5067158;28;20045;-44
2023/04/10 01:12:53;;;;;;;10.57;7.87;;;8.30;56.00;;;11.23;39.23;98167.19;5054656;28;20127;-48
2023/04/10 01:15:29;;;;;;;;;;;8.20;56.00;;;11.28;39.26;98172.03;5037236;28;20049;-49
2023/04/10 01:18:49;;;;;;;12.27;7.90;;;8.20;56.90;;;11.20;39.52;98165.63;5060962;28;19921;-49
2023/04/10 01:21:20;;;;;;;11.97;9.03;;;8.10;57.00;;;11.19;39.48;98171.97;5019960;28;20049;-45
2023/04/10 01:24:32;;;;;;;12.00;8.57;;;8.10;55.70;;;11.15;39.19;98164.44;5062167;28;20056;-46
2023/04/10 01:27:28;;;;;;;11.47;7.43;;;8.20;55.90;;;11.19;39.51;98165.81;5044890;28;20049;-47
2023/04/10 01:30:00;;;;;;;9.83;7.37;;;8.20;55.90;;;11.19;39.67;98168.47;5062013;28;20040;-48
2023/04/10 01:32:29;;;;;;;11.80;8.10;;;8.20;55.30;;;11.15;39.34;98162.59;5045895;28;20051;-45
2023/04/10 01:35:00;;;;;;;12.37;8.83;;;8.20;55.30;;;11.15;39.28;98159.13;5059086;28;20044;-48
2023/04/10 01:37:30;;;;;;;11.37;8.33;;;8.20;55.30;;;11.16;39.57;98152.78;5059932;28;20048;-51
2023/04/10 01:40:02;;;;;;;10.43;7.20;;;8.20;55.30;;;11.16;39.74;98153.59;5060535;28;20695;-46
2023/04/10 01:42:37;;;;;;;13.47;8.60;;;8.20;55.50;;;11.16;39.80;98158.94;5045107;28;20044;-47
2023/04/10 01:45:11;;;;;;;9.87;7.43;;;8.10;55.50;;;11.16;39.46;98155.44;5057586;28;20037;-45
2023/04/10 01:47:39;;;;;;;10.90;7.53;;;8.10;55.50;;;11.15;39.50;98156.44;5058703;28;20048;-46
2023/04/10 01:50:08;;;;;;;13.80;7.33;;;8.10;55.50;;;11.13;39.59;98148.59;5062948;28;20036;-45
2023/04/10 01:52:37;;;;;;;11.00;7.13;;;8.10;55.60;;;11.14;39.73;98160.09;5061578;28;20520;-47
2023/04/10 01:55:14;;;;;;;10.37;8.00;;;8.10;55.40;;;11.12;39.27;98151.41;5057884;28;20421;-46
2023/04/10 01:57:48;;;;;;;10.23;7.80;;;8.10;55.20;;;11.13;39.57;98155.78;5058642;28;20056;-46
2023/04/10 02:00:16;;;;;;;12.67;7.53;;;8.10;55.30;;;11.08;39.62;98152.72;5061139;28;20040;-49
2023/04/10 02:02:45;;;;;;;12.90;7.93;;;8.10;55.20;;;11.06;39.63;98158.19;5060436;28;20449;-45
2023/04/10 02:05:15;;;;;;;14.37;7.73;;;8.10;55.20;;;11.07;40.03;98159.00;5057886;28;20068;-46
2023/04/10 02:07:56;;;;;;;13.97;7.53;;;8.10;55.30;;;11.01;39.93;98153.31;5059331;28;20501;-45
2023/04/10 02:10:42;;;;;;;11.80;7.87;;;8.10;55.60;;;11.00;39.79;98145.47;5061264;28;20056;-46
2023/04/10 02:13:13;;;;;;;13.10;7.60;;;8.00;56.10;;;11.00;40.01;98154.28;5049614;28;20045;-45
2023/04/10 02:15:45;;;;;;;12.77;8.33;;;8.00;56.10;;;10.96;40.19;98149.44;5058094;28;20514;-45
2023/04/10 02:18:17;;;;;;;12.90;8.60;;;7.90;56.60;;;10.92;39.90;98148.06;5041483;28;20049;-47
2023/04/10 02:20:45;;;;;;;13.57;8.47;;;7.80;56.90;;;10.87;40.24;98155.66;5057687;28;20049;-48
2023/04/10 02:23:16;;;;;;;13.07;8.60;;;7.70;57.10;;;10.83;40.40;98155.13;5044261;28;20069;-45
2023/04/10 02:25:44;;;;;;;11.30;7.33;;;7.70;57.20;;;10.79;40.10;98153.75;5062596;28;20047;-50
2023/04/10 02:28:11;;;;;;;10.13;8.23;;;7.60;57.10;;;10.76;40.25;98146.03;5040776;28;20045;-50
2023/04/10 02:30:39;;;;;;;12.30;9.00;;;7.60;57.20;;;10.75;39.99;98147.03;5058507;28;20417;-46
2023/04/10 02:33:06;;;;;;;12.03;8.17;;;7.60;56.90;;;10.71;40.21;98146.50;5061883;28;20044;-47
2023/04/10 02:35:34;;;;;;;12.83;8.27;;;7.60;57.30;;;10.69;40.42;98143.16;5062371;28;20052;-47
2023/04/10 02:38:03;;;;;;;12.03;8.70;;;7.60;57.20;;;10.68;40.52;98143.28;5059460;28;20059;-45
2023/04/10 02:40:34;;;;;;;11.80;8.00;;;7.50;56.90;;;10.67;40.21;98149.63;5057727;28;20411;-47
2023/04/10 02:43:28;;;;;;;11.20;7.97;;;7.50;56.90;;;10.67;40.15;98146.97;5051117;28;20076;-47
2023/04/10 02:45:56;;;;;;;12.40;7.43;;;7.50;57.10;;;10.61;40.58;98151.06;5059068;28;20041;-46
2023/04/10 02:48:26;;;;;;;13.70;8.07;;;7.50;57.10;;;10.59;40.23;98161.84;5045032;28;20041;-45
2023/04/10 02:50:58;;;;;;;12.90;8.10;;;7.50;57.10;;;10.60;40.54;98162.69;5059117;28;20398;-46
2023/04/10 02:53:28;;;;;;;14.37;9.43;;;7.50;57.10;;;10.58;40.64;98162.00;5056928;28;20048;-47
2023/04/10 02:55:59;;;;;;;13.27;8.27;;;7.40;57.50;;;10.53;40.60;98166.94;5058941;28;20060;-46
2023/04/10 02:58:29;;;;;;;13.83;8.67;;;7.30;57.70;;;10.46;40.41;98161.34;5060716;28;20045;-46
2023/04/10 03:00:57;;;;;;;15.23;9.37;;;7.20;58.30;;;10.37;40.51;98155.09;5059074;28;20048;-49
2023/04/10 03:03:45;;;;;;;14.13;9.87;;;7.00;58.50;;;10.25;40.46;98151.78;5056588;28;20060;-48
2023/04/10 03:06:18;;;;;;;13.48;8.82;;;6.90;58.90;;;10.18;40.66;98155.16;5057197;28;20068;-45
2023/04/10 03:08:46;;;;;;;15.10;9.87;;;6.80;59.20;;;10.09;40.74;98146.22;5057013;28;20052;-45
2023/04/10 03:11:14;;;;;;;12.27;8.30;;;6.70;59.60;;;10.01;41.02;98135.47;5061086;28;20040;-48
2023/04/10 03:13:41;;;;;;;20.23;9.77;;;6.60;59.80;;;9.95;41.16;98150.19;5063510;28;20049;-46
2023/04/10 03:16:09;;;;;;;11.00;8.57;;;6.60;59.90;;;9.89;41.42;98139.28;5061225;28;20045;-45
2023/04/10 03:18:37;;;;;;;12.60;8.40;;;6.60;59.60;;;9.88;41.30;98135.78;5060265;28;20053;-45
2023/04/10 03:21:05;;;;;;;12.50;7.67;;;6.70;59.40;;;9.91;41.50;98137.34;5064742;28;20045;-47
2023/04/10 03:23:32;;;;;;;10.50;7.80;;;6.80;59.10;;;9.96;41.58;98130.56;5063733;28;20067;-47
2023/04/10 03:26:00;;;;;;;11.17;7.90;;;6.90;58.90;;;10.03;41.76;98129.03;5062135;28;20417;-47
2023/04/10 03:28:31;;;;;;;11.10;7.40;;;7.00;58.50;;;10.08;41.43;98130.41;5058021;28;20060;-48
2023/04/10 03:31:00;;;;;;;11.67;7.63;;;7.10;58.20;;;10.12;41.23;98122.00;5062613;28;20041;-45
2023/04/10 03:33:31;;;;;;;11.27;7.47;;;7.20;58.00;;;10.15;41.34;98124.34;5065154;28;20045;-47
2023/04/10 03:36:00;;;;;;;12.77;7.10;;;7.30;57.70;;;10.18;41.42;98128.56;5063607;28;20421;-47
2023/04/10 03:38:27;;;;;;;9.97;7.27;;;7.30;57.90;;;10.22;41.21;98124.63;5059901;28;20048;-47
2023/04/10 03:40:55;;;;;;;10.63;7.30;;;7.30;58.00;;;10.24;41.18;98119.97;5061243;28;20060;-44
2023/04/10 03:43:25;;;;;;;9.83;7.03;;;7.30;58.00;;;10.27;41.04;98122.31;5063210;28;20412;-47
2023/04/10 03:45:52;;;;;;;9.60;7.30;;;7.30;58.00;;;10.30;40.94;98123.88;5064567;28;20044;-45
2023/04/10 03:48:21;;;;;;;10.83;7.50;;;7.30;58.00;;;10.30;40.92;98118.56;5060332;28;20052;-46
2023/04/10 03:50:49;;;;;;;12.17;7.50;;;7.30;57.70;;;10.29;41.28;98115.03;5059992;28;20060;-48
2023/04/10 03:53:16;;;;;;;10.93;6.70;;;7.30;57.50;;;10.28;41.31;98117.88;5064957;28;20032;-45
2023/04/10 03:55:45;;;;;;;11.63;7.70;;;7.20;57.90;;;10.29;40.87;98116.88;5063984;28;20416;-47
2023/04/10 03:58:12;;;;;;;9.37;6.10;;;7.20;57.80;;;10.29;41.11;98117.69;5061669;28;20041;-47
2023/04/10 04:00:40;;;;;;;11.83;7.50;;;7.20;57.80;;;10.31;40.95;98113.09;5059725;28;20526;-46
2023/04/10 04:03:19;;;;;;;9.20;6.27;;;7.20;57.70;;;10.34;40.91;98104.00;5067941;28;20268;-46
2023/04/10 04:06:05;;;;;;;10.27;6.97;;;7.20;57.90;;;10.35;40.80;98100.34;5061803;28;20056;-45
2023/04/10 04:08:40;;;;;;;10.43;6.87;;;7.20;57.70;;;10.35;40.79;98095.88;5063288;28;20048;-44
2023/04/10 04:11:08;;;;;;;10.53;7.43;;;7.30;57.70;;;10.36;40.91;98088.72;5062183;28;20037;-47
2023/04/10 04:13:46;;;;;;;9.57;6.13;;;7.30;57.60;;;10.36;41.00;98091.38;5059396;28;20045;-46
2023/04/10 04:16:34;;;;;;;10.30;7.03;;;7.30;57.30;;;10.30;41.04;98086.63;5053898;28;20395;-48
2023/04/10 04:19:28;;;;;;;9.67;6.87;;;7.30;57.20;;;10.30;41.13;98091.94;5017085;28;20055;-45
2023/04/10 04:22:13;;;;;;;11.17;6.80;;;7.40;57.00;;;10.26;41.19;98088.75;5061990;28;20298;-46
2023/04/10 04:24:59;;;;;;;9.87;6.83;;;7.40;57.10;;;10.28;40.95;98088.59;5062283;28;20055;-48
2023/04/10 04:27:58;;;;;;;10.90;6.57;;;7.30;57.30;;;10.27;40.98;98086.91;5028752;28;20098;-47
2023/04/10 04:30:55;;;;;;;9.63;6.33;;;7.20;57.30;;;10.28;41.09;98094.75;5061785;28;20040;-45
2023/04/10 04:33:36;;;;;;;9.63;6.50;;;7.30;57.40;;;10.29;41.21;98090.25;5058984;28;20041;-46
2023/04/10 04:36:23;;;;;;;10.70;6.67;;;7.30;57.40;;;10.33;41.16;98091.66;5032282;28;20162;-45
2023/04/10 04:39:07;;;;;;;9.30;6.77;;;7.30;57.20;;;10.30;40.69;98091.94;5061289;28;20052;-46
2023/04/10 04:41:49;;;;;;;8.07;6.17;;;7.40;56.90;;;10.30;40.87;98091.94;5062890;28;20040;-49
2023/04/10 04:44:51;;;;;;;8.60;6.00;;;7.40;57.10;;;10.32;41.10;98100.66;4995512;28;20070;-46
2023/04/10 04:47:42;;;;;;;10.40;6.33;;;7.30;57.40;;;10.27;41.21;98097.56;5058505;28;20048;-47
2023/04/10 04:50:20;;;;;;;10.27;7.30;;;7.30;57.10;;;10.23;41.10;98097.84;5053551;28;20053;-49
2023/04/10 04:53:23;;;;;;;9.63;6.47;;;7.30;57.00;;;10.21;41.44;98102.47;5027828;28;20041;-46
2023/04/10 04:56:11;;;;;;;10.47;6.87;;;7.40;56.90;;;10.22;41.04;98095.34;5062674;28;20060;-48
2023/04/10 04:58:58;;;;;;;10.93;6.33;;;7.40;56.90;;;10.23;41.17;98100.50;5062736;28;20056;-47
2023/04/10 05:01:40;;;;;;;7.93;6.03;;;7.40;57.30;;;10.26;41.29;98107.38;5059094;28;20049;-50
2023/04/10 05:04:19;;;;;;;9.43;6.87;;;7.40;57.10;;;10.21;40.97;98107.78;5058226;28;20418;-48
2023/04/10 05:06:56;;;;;;;10.97;7.03;;;7.40;57.00;;;10.23;41.22;98116.47;5058797;28;20414;-46
2023/04/10 05:09:59;;;;;;;8.57;6.30;;;7.40;57.00;;;10.20;41.02;98106.13;5001218;28;20082;-46
2023/04/10 05:12:45;;;;;;;8.40;6.10;;;7.40;56.90;;;10.21;41.36;98114.94;5055573;28;20080;-45
2023/04/10 05:15:24;;;;;;;11.27;6.37;;;7.40;57.00;;;10.24;41.27;98122.66;5058380;28;20060;-49
2023/04/10 05:18:13;;;;;;;9.67;6.43;;;7.40;57.00;;;10.29;41.26;98119.53;5062858;28;20048;-45
2023/04/10 05:20:55;;;;;;;9.47;6.50;;;7.40;57.10;;;10.31;41.29;98115.75;5061463;28;20049;-46
2023/04/10 05:23:39;;;;;;;8.83;6.47;;;7.40;57.00;;;10.33;41.08;98116.47;5057733;28;20514;-46
2023/04/10 05:26:29;;;;;;;10.93;7.70;;;7.40;57.40;;;10.37;41.11;98114.31;5058372;28;20045;-44
2023/04/10 05:29:11;;;;;;;10.60;6.90;;;7.40;57.30;;;10.40;40.93;98114.88;5060476;28;20045;-46
2023/04/10 05:32:06;;;;;;;9.53;6.37;;;7.40;57.20;;;10.43;41.01;98111.09;5060619;28;20044;-45
2023/04/10 05:34:57;;;;;;;9.87;7.63;;;7.40;57.50;;;10.43;41.02;98111.09;5057526;28;20053;-48
2023/04/10 05:37:42;;;;;;;10.83;7.20;;;7.30;57.60;;;10.43;40.79;98113.75;5062816;28;20060;-45
2023/04/10 05:40:31;;;;;;;10.33;6.77;;;7.30;57.50;;;10.41;41.14;98105.06;5048802;28;20049;-46
2023/04/10 05:43:20;;;;;;;10.83;7.33;;;7.30;57.60;;;10.42;40.84;98115.56;5050556;28;20056;-48
2023/04/10 05:46:11;;;;;;;10.60;6.60;;;7.40;57.60;;;10.46;40.90;98126.75;5061719;28;20060;-47
2023/04/10 05:48:54;;;;;;;8.97;6.00;;;7.30;57.60;;;10.47;40.73;98125.78;5061052;28;20059;-45
2023/04/10 05:51:33;;;;;;;9.57;7.33;;;7.40;57.20;;;10.47;41.19;98120.47;5051905;28;20045;-47
2023/04/10 05:54:17;;;;;;;11.73;7.50;;;7.40;57.30;;;10.49;40.74;98118.47;5061458;28;20052;-45
2023/04/10 05:57:03;;;;;;;10.80;7.60;;;7.40;57.20;;;10.51;40.90;98123.66;5062900;28;20052;-47
2023/04/10 06:00:07;;;;;;;10.03;7.10;;;7.40;57.10;;;10.49;40.66;98126.47;5049971;28;20432;-44
2023/04/10 06:02:40;;;;;;;;;;;7.40;57.20;;;10.52;41.04;98126.16;5063552;28;20063;-45
2023/04/10 06:05:15;;;;;;;10.00;6.73;;;7.40;57.60;;;10.55;40.97;98125.03;5058351;28;19920;-47
2023/04/10 06:07:43;;;;;;;8.63;6.53;;;7.40;57.50;;;10.53;40.70;98119.84;5058120;28;20045;-44
2023/04/10 06:10:10;;;;;;;12.70;7.50;;;7.40;57.50;;;10.52;40.63;98123.50;5061260;28;20041;-45
2023/04/10 06:12:38;;;;;;;9.93;7.20;;;7.40;57.40;;;10.54;40.64;98123.34;5062473;28;20521;-45
2023/04/10 06:15:09;;;;;;;11.10;7.47;;;7.40;57.20;;;10.52;40.92;98120.81;5058720;28;20055;-48
2023/04/10 06:17:42;;;;;;;9.13;6.87;;;7.40;57.40;;;10.52;41.13;98120.81;5057166;28;20053;-47
2023/04/10 06:20:10;;;;;;;10.83;7.50;;;7.30;57.70;;;10.52;40.79;98120.00;5059392;28;20049;-45
2023/04/10 06:22:38;;;;;;;9.93;6.90;;;7.30;57.90;;;10.52;41.10;98123.50;5062401;28;20055;-46
2023/04/10 06:25:05;;;;;;;10.73;7.23;;;7.30;58.10;;;10.52;41.09;98122.66;5061076;28;20517;-47
2023/04/10 06:27:37;;;;;;;11.87;7.67;;;7.30;58.10;;;10.51;41.33;98115.69;5057417;28;20437;-45
2023/04/10 06:30:10;;;;;;;12.37;7.90;;;7.30;58.10;;;10.52;41.08;98123.50;5056683;28;20060;-48
2023/04/10 06:32:37;;;;;;;12.73;7.23;;;7.30;58.40;;;10.52;41.25;98120.00;5061241;28;20048;-49
2023/04/10 06:35:06;;;;;;;10.13;7.03;;;7.40;58.40;;;10.53;41.39;98119.84;5059364;28;20045;-48
2023/04/10 06:37:33;;;;;;;11.27;7.47;;;7.40;58.50;;;10.55;41.33;98117.88;5057902;28;20049;-46
2023/04/10 06:40:10;;;;;;;11.40;7.53;;;7.40;58.20;;;10.56;41.12;98116.88;5058354;28;20402;-45
2023/04/10 06:42:37;;;;;;;10.23;7.43;;;7.40;58.30;;;10.59;41.07;98121.09;5058447;28;20413;-45
2023/04/10 06:45:13;;;;;;;10.00;7.00;;;7.50;58.30;;;10.62;41.37;98121.63;5042540;28;20053;-45
2023/04/10 06:47:41;;;;;;;10.87;7.50;;;7.50;58.40;;;10.63;41.32;98111.81;5058683;28;20049;-49
2023/04/10 06:50:09;;;;;;;9.33;7.33;;;7.60;58.20;;;10.67;41.83;98112.34;5063122;28;20044;-44
2023/04/10 06:52:37;;;;;;;11.00;7.70;;;7.70;58.00;;;10.70;41.70;98107.56;5065214;28;20409;-47
2023/04/10 06:55:05;;;;;;;12.47;6.90;;;7.70;58.10;;;10.76;41.56;98111.41;5063961;28;20048;-45
2023/04/10 06:57:32;;;;;;;10.30;6.63;;;7.80;58.20;;;10.84;41.68;98106.19;5061772;28;20044;-45
2023/04/10 07:00:00;;;;;;;11.13;6.63;;;7.80;58.10;;;10.92;41.21;98103.59;5061809;28;20048;-47
2023/04/10 07:02:27;;;;;;;10.17;6.87;;;7.90;58.20;;;10.98;41.46;98100.31;5063112;28;20063;-47
2023/04/10 07:04:55;;;;;;;9.27;7.03;;;8.00;58.00;;;10.99;41.12;98112.69;5064605;28;20041;-45
2023/04/10 07:07:23;;;;;;;11.10;7.33;;;8.10;57.50;;;11.02;41.22;98098.19;5060241;28;20041;-47
2023/04/10 07:09:50;;;;;;;11.63;6.93;;;8.10;57.20;;;11.08;41.06;98099.41;5061406;28;20372;-47
2023/04/10 07:12:18;;;;;;;10.77;7.87;;;8.20;57.00;;;11.11;41.09;98107.09;5063748;28;20069;-45
2023/04/10 07:14:46;;;;;;;12.53;7.57;;;8.20;56.80;;;11.17;41.40;98106.50;5064916;28;20059;-45
2023/04/10 07:17:13;;;;;;;8.87;6.80;;;8.30;56.90;;;11.25;41.24;98103.06;5062981;28;20055;-46
2023/04/10 07:19:40;;;;;;;9.23;6.90;;;8.30;56.80;;;11.31;41.06;98100.59;5060946;28;20430;-47
2023/04/10 07:22:08;;;;;;;9.83;6.93;;;8.40;56.60;;;11.37;40.68;98099.97;5061774;28;20063;-46
2023/04/10 07:24:36;;;;;;;9.63;6.50;;;8.50;56.60;;;11.45;40.71;98103.72;5064265;28;20057;-46
2023/04/10 07:27:03;;;;;;;9.43;6.80;;;8.50;56.30;;;11.50;40.70;98106.75;5064270;28;20045;-48
2023/04/10 07:29:31;;;;;;;9.33;6.10;;;8.50;55.80;;;11.53;40.08;98109.09;5059805;28;20413;-45
2023/04/10 07:31:58;;;;;;;8.63;5.97;;;8.60;55.30;;;11.56;40.35;98106.13;5061352;28;20045;-48
2023/04/10 07:34:26;;;;;;;9.97;6.50;;;8.70;55.40;;;11.61;40.42;98104.66;5063770;28;20052;-46
2023/04/10 07:36:54;;;;;;;10.17;6.20;;;8.70;55.20;;;11.68;39.58;98104.03;5064378;28;20493;-46
2023/04/10 07:39:21;;;;;;;7.97;5.53;;;8.80;54.20;;;11.69;40.06;98095.03;5061449;28;20071;-46
2023/04/10 07:41:49;;;;;;;10.30;6.37;;;8.90;54.60;;;11.76;39.51;98093.41;5061055;28;20049;-45
2023/04/10 07:44:17;;;;;;;9.83;6.53;;;8.90;53.40;;;11.74;39.95;98093.56;5062405;28;20528;-46
2023/04/10 07:46:44;;;;;;;9.80;6.07;;;9.00;53.70;;;11.82;39.87;98106.97;5063779;28;20544;-45
2023/04/10 07:49:12;;;;;;;8.93;6.07;;;9.10;53.60;;;11.91;39.97;98102.53;5062967;28;20276;-48
2023/04/10 07:51:39;;;;;;;8.67;5.57;;;9.20;54.10;;;12.01;40.09;98099.75;5060746;28;20045;-47
2023/04/10 07:54:07;;;;;;;9.10;6.17;;;9.30;53.90;;;12.10;39.52;98109.47;5060914;28;20056;-45
2023/04/10 07:56:35;;;;;;;8.37;6.23;;;9.40;53.80;;;12.16;39.45;98100.81;5064320;28;20552;-47
2023/04/10 07:59:03;;;;;;;8.50;6.10;;;9.40;53.80;;;12.25;39.80;98095.50;5063408;28;20524;-53
2023/04/10 08:01:30;;;;;;;8.37;6.03;;;9.50;53.80;;;12.32;39.72;98094.72;5060342;28;20041;-47
2023/04/10 08:03:58;;;;;;;8.43;5.90;;;9.60;54.00;;;12.38;39.55;98091.38;5060198;28;20059;-47
2023/04/10 08:06:27;;;;;;;8.37;5.90;;;9.60;53.70;;;12.46;39.76;98095.91;5063942;28;20033;-48
2023/04/10 08:08:55;;;;;;;7.43;5.30;;;9.70;53.80;;;12.55;39.89;98097.63;5063661;28;20516;-46
2023/04/10 08:11:29;;;;;;;7.33;5.13;;;9.80;53.80;;;12.65;39.52;98091.31;5061048;28;20041;-47
2023/04/10 08:14:02;;;;;;;8.05;5.50;;;9.90;53.00;;;12.73;39.57;98088.66;5059752;28;20521;-45
2023/04/10 08:16:35;;;;;;;8.93;6.10;;;10.00;53.00;;;12.84;38.71;98088.34;5052709;28;20532;-45
2023/04/10 08:19:02;;;;;;;7.07;5.60;;;10.10;51.70;;;12.87;38.57;98089.84;5060193;28;20124;-47
2023/04/10 08:21:30;;;;;;;6.43;4.63;;;10.10;51.50;;;12.93;38.31;98086.50;5052497;28;20037;-45
2023/04/10 08:24:01;;;;;;;6.70;5.30;;;10.20;51.40;;;12.99;38.04;98080.53;5059819;28;20052;-50
2023/04/10 08:26:29;;;;;;;7.30;4.80;;;10.30;51.00;;;13.07;38.15;98077.03;5058593;28;20037;-49
2023/04/10 08:28:58;;;;;;;6.73;4.63;;;10.30;51.20;;;13.13;38.09;98076.34;5059683;28;20041;-46
2023/04/10 08:31:27;;;;;;;6.73;4.43;;;10.40;50.60;;;13.21;37.86;98084.34;5063766;28;20047;-48
2023/04/10 08:33:56;;;;;;;7.03;4.80;;;10.40;50.40;;;13.25;37.54;98090.22;5062689;28;20266;-47
2023/04/10 08:36:25;;;;;;;5.73;4.60;;;10.50;49.90;;;13.28;36.84;98085.38;5060539;28;20048;-47
2023/04/10 08:38:53;;;;;;;6.10;4.50;;;10.60;48.90;;;13.33;37.21;98080.38;5060922;28;20045;-50
2023/04/10 08:41:21;;;;;;;5.03;3.23;;;10.60;48.90;;;13.41;36.65;98076.03;5062115;28;20053;-45
2023/04/10 08:43:49;;;;;;;4.87;4.10;;;10.70;48.10;;;13.47;36.07;98072.66;5063748;28;20051;-48
2023/04/10 08:46:17;;;;;;;6.00;3.83;;;10.70;47.30;;;13.53;35.83;98072.00;5061156;28;20036;-49
2023/04/10 08:48:52;;;;;;;5.57;3.93;;;10.80;46.20;;;13.54;35.46;98069.16;5060710;28;20037;-47
2023/04/10 08:51:22;;;;;;;5.93;3.60;;;10.80;45.10;;;13.61;35.45;98077.34;5060894;28;20056;-49
2023/04/10 08:54:09;;;;;;;5.93;3.70;;;10.90;46.00;;;13.69;36.13;98082.69;5061870;28;20048;-47
2023/04/10 08:56:39;;;;;;;5.13;3.67;;;10.90;46.10;;;13.78;35.22;98080.81;5051511;28;20064;-46
2023/04/10 08:59:08;;;;;;;5.77;4.37;;;11.00;45.70;;;13.82;35.21;98078.63;5059354;28;20056;-46
2023/04/10 09:01:35;;;;;;;4.90;3.40;;;11.10;46.10;;;13.88;35.24;98081.47;5062537;28;20502;-46
2023/04/10 09:04:04;;;;;;;4.83;3.40;;;11.20;45.80;;;13.94;34.99;98070.06;5056903;28;20506;-47
2023/04/10 09:06:32;;;;;;;5.93;4.17;;;11.20;45.50;;;13.98;34.91;98070.56;5051967;28;20043;-50
2023/04/10 09:08:59;;;;;;;6.30;4.57;;;11.20;45.30;;;14.04;34.75;98080.56;5059929;28;20059;-48
2023/04/10 09:11:55;;;;;;;7.43;4.33;;;11.30;45.00;;;14.10;34.75;98073.69;5051910;28;20037;-46
2023/04/10 09:14:32;;;;;;;4.60;2.97;;;11.40;43.20;;;14.15;34.06;98077.53;5062040;28;20222;-49
2023/04/10 09:17:20;;;;;;;4.77;3.33;;;11.40;43.80;;;14.20;34.41;98065.47;5063499;28;20048;-48
2023/04/10 09:19:52;;;;;;;4.37;3.17;;;11.40;42.20;;;14.22;34.09;98055.41;5052817;28;20398;-48
2023/04/10 09:22:34;;;;;;;3.95;2.75;;;11.50;44.10;;;14.29;34.21;98057.22;5060617;28;20059;-46
2023/04/10 09:25:03;;;;;;;5.20;3.40;;;11.60;42.90;;;14.37;33.83;98051.00;5062052;28;20048;-47
2023/04/10 09:27:36;;;;;;;4.27;2.97;;;11.60;43.40;;;14.43;33.48;98049.44;5059941;28;20413;-50
2023/04/10 09:30:05;;;;;;;4.25;3.25;;;11.70;41.70;;;14.46;33.54;98031.19;5038906;28;20053;-49
2023/04/10 09:32:43;;;;;;;4.38;3.03;;;11.80;42.80;;;14.53;33.59;98037.47;5058829;28;20052;-46
2023/04/10 09:35:13;;;;;;;5.03;3.40;;;11.90;41.90;;;14.62;33.55;98042.81;5059549;28;20045;-49
2023/04/10 09:37:43;;;;;;;4.07;2.78;;;11.90;42.90;;;14.69;32.91;98031.22;5063056;28;20441;-46
2023/04/10 09:40:23;;;;;;;4.68;3.15;;;12.00;41.70;;;14.77;32.72;98025.81;5062671;28;20410;-46
2023/04/10 09:42:54;;;;;;;4.20;3.30;;;12.10;39.20;;;14.82;32.64;98027.94;5059974;28;20053;-48
2023/04/10 09:45:22;;;;;;;4.55;3.58;;;12.20;41.30;;;14.88;32.34;98021.03;5061303;28;20045;-49
2023/04/10 09:48:07;;;;;;;4.40;3.47;;;12.20;41.30;;;14.98;32.58;98010.06;5062910;28;20386;-46
2023/04/10 09:50:42;;;;;;;3.75;2.83;;;12.30;39.40;;;15.05;32.45;98011.03;5047015;28;20422;-48
2023/04/10 09:53:18;;;;;;;6.70;4.15;;;12.40;41.40;;;15.12;32.65;98007.44;5056286;28;20045;-46
2023/04/10 09:55:48;;;;;;;6.30;3.67;;;12.40;41.00;;;15.22;31.48;98006.34;5063051;28;20044;-46
2023/04/10 09:58:16;;;;;;;4.72;2.65;;;12.50;39.10;;;15.26;31.51;98003.13;5061903;28;20059;-50
2023/04/10 10:00:46;;;;;;;3.72;2.70;;;12.60;39.80;;;15.34;31.29;97996.84;5059516;28;20045;-47
2023/04/10 10:03:19;;;;;;;4.88;2.85;;;12.70;39.10;;;15.41;31.53;97994.25;5059892;28;20049;-49
2023/04/10 10:05:50;;;;;;;4.32;2.85;;;12.80;38.90;;;15.50;31.37;97993.97;5062729;28;20055;-47
2023/04/10 10:08:18;;;;;;;3.35;2.33;;;12.90;39.30;;;15.55;30.85;97990.75;5043567;28;20528;-47
2023/04/10 10:10:56;;;;;;;4.22;2.88;;;12.90;38.40;;;15.63;31.01;97979.09;5058355;28;20422;-47
2023/04/10 10:13:29;;;;;;;2.90;2.38;;;13.00;37.40;;;15.69;30.85;97978.34;5041908;28;20395;-48
2023/04/10 10:16:26;;;;;;;3.30;2.10;;;13.10;38.10;;;15.80;30.90;97974.38;5045393;28;20067;-50
2023/04/10 10:19:00;;;;;;;4.72;3.38;;;13.10;37.60;;;15.91;30.97;97969.38;5053649;28;20044;-48
2023/04/10 10:21:29;;;;;;;4.28;2.70;;;13.30;38.50;;;16.01;30.60;97957.50;5063715;28;20049;-47
2023/04/10 10:24:00;;;;;;;3.72;2.53;;;13.40;38.30;;;16.11;30.28;97949.97;5066725;28;20048;-48
2023/04/10 10:26:29;;;;;;;3.40;2.38;;;13.50;37.70;;;16.18;29.97;97948.22;5046733;28;20052;-51
2023/04/10 10:28:58;;;;;;;3.50;2.45;;;13.60;37.40;;;16.27;29.86;97946.25;5062258;28;20041;-46
2023/04/10 10:31:31;;;;;;;3.33;2.40;;;13.70;37.20;;;16.38;30.00;97944.91;5064092;28;20498;-48
2023/04/10 10:34:03;;;;;;;4.68;3.80;;;13.80;36.80;;;16.49;30.15;97947.09;5066149;28;20047;-47
2023/04/10 10:36:31;;;;;;;4.15;3.00;;;13.90;37.20;;;16.64;29.72;97933.59;5063889;28;20045;-47
2023/04/10 10:39:32;;;;;;;3.72;2.58;;;14.00;36.40;;;16.69;29.78;97929.31;5063201;28;20045;-44
2023/04/10 10:42:31;;;;;;;4.53;2.42;;;14.10;34.30;;;16.80;29.74;97929.81;5058154;28;20044;-49
2023/04/10 10:45:08;;;;;;;4.32;3.20;;;14.20;35.90;;;16.86;29.40;97931.75;5056463;28;20045;-47
2023/04/10 10:47:44;;;;;;;2.60;2.33;;;14.30;36.30;;;16.89;29.30;97921.44;5065280;28;20052;-47